createdAt,value
2024-04-15T00:00:37.297Z,74
2024-04-15T00:03:36.846Z,74
2024-04-15T00:06:37.368Z,74
2024-04-15T00:09:36.832Z,74
2024-04-15T00:12:36.860Z,74
2024-04-15T00:15:37.448Z,74
2024-04-15T00:18:37.353Z,74
2024-04-15T00:21:37.500Z,74
2024-04-15T00:24:36.665Z,74
2024-04-15T00:27:37.526Z,74
2024-04-15T00:30:37.631Z,74
2024-04-15T00:33:37.713Z,74
2024-04-15T00:36:36.763Z,74
2024-04-15T00:39:37.764Z,74
2024-04-15T00:42:37.579Z,74
2024-04-15T00:45:37.093Z,74
2024-04-15T00:48:36.692Z,74
2024-04-15T00:51:37.241Z,74
2024-04-15T00:54:38.111Z,74
2024-04-15T00:57:36.935Z,74
2024-04-15T01:00:37.668Z,74
2024-04-15T01:03:37.258Z,74
2024-04-15T01:06:37.063Z,75
2024-04-15T01:09:37.438Z,75
2024-04-15T01:12:37.036Z,75
2024-04-15T01:15:36.717Z,76
2024-04-15T01:18:37.294Z,76
2024-04-15T01:21:37.385Z,76
2024-04-15T01:24:38.347Z,76
2024-04-15T01:27:37.144Z,75
2024-04-15T01:30:36.878Z,75
2024-04-15T01:33:37.074Z,75
2024-04-15T01:36:36.569Z,76
2024-04-15T01:39:37.051Z,76
2024-04-15T01:42:36.440Z,76
2024-04-15T01:45:36.979Z,76
2024-04-15T01:48:36.629Z,76
2024-04-15T01:51:37.236Z,76
2024-04-15T01:54:36.806Z,76
2024-04-15T01:57:37.359Z,77
2024-04-15T02:00:37.046Z,77
2024-04-15T02:03:37.666Z,77
2024-04-15T02:06:37.111Z,77
2024-04-15T02:09:37.424Z,77
2024-04-15T02:12:36.834Z,77
2024-04-15T02:15:37.342Z,78
2024-04-15T02:18:37.454Z,78
2024-04-15T02:21:37.279Z,78
2024-04-15T02:24:36.803Z,78
2024-04-15T02:27:37.444Z,79
2024-04-15T02:30:37.104Z,79
2024-04-15T02:33:37.387Z,79
2024-04-15T02:36:37.722Z,78
2024-04-15T02:39:37.099Z,78
2024-04-15T02:42:36.667Z,78
2024-04-15T02:45:37.062Z,79
2024-04-15T02:48:36.820Z,79
2024-04-15T02:51:37.415Z,79
2024-04-15T02:54:37.023Z,79
2024-04-15T02:57:37.530Z,78
2024-04-15T03:00:37.912Z,78
2024-04-15T03:03:36.993Z,78
2024-04-15T03:06:36.856Z,76
2024-04-15T03:09:36.922Z,76
2024-04-15T03:12:37.870Z,76
2024-04-15T03:15:36.909Z,77
2024-04-15T03:18:37.733Z,77
2024-04-15T03:21:37.311Z,77
2024-04-15T03:24:37.106Z,77
2024-04-15T03:27:36.992Z,78
2024-04-15T03:30:37.275Z,78
2024-04-15T03:33:36.918Z,78
2024-04-15T03:36:38.610Z,77
2024-04-15T03:39:36.882Z,77
2024-04-15T03:42:37.144Z,77
2024-04-15T03:45:36.605Z,76
2024-04-15T03:48:37.196Z,76
2024-04-15T03:51:36.791Z,76
2024-04-15T03:54:37.598Z,76
2024-04-15T03:57:36.994Z,75
2024-04-15T04:00:36.451Z,75
2024-04-15T04:03:37.020Z,75
2024-04-15T04:06:36.972Z,75
2024-04-15T04:09:37.332Z,75
2024-04-15T04:12:37.139Z,75
2024-04-15T04:15:36.705Z,74
2024-04-15T04:18:36.836Z,74
2024-04-15T04:21:36.486Z,74
2024-04-15T04:24:37.021Z,74
2024-04-15T04:27:36.676Z,77
2024-04-15T04:30:37.466Z,77
2024-04-15T04:33:36.946Z,77
2024-04-15T04:36:36.488Z,79
2024-04-15T04:39:37.204Z,79
2024-04-15T04:42:36.580Z,79
2024-04-15T04:45:37.361Z,80
2024-04-15T04:48:36.872Z,80
2024-04-15T04:51:36.611Z,80
2024-04-15T04:54:36.699Z,80
2024-04-15T04:57:37.695Z,82
2024-04-15T05:03:38.456Z,82
2024-04-15T05:06:37.509Z,82
2024-04-15T05:09:37.109Z,82
2024-04-15T05:12:37.395Z,82
2024-04-15T05:15:37.970Z,82
2024-04-15T05:18:37.634Z,82
2024-04-15T05:21:37.519Z,82
2024-04-15T05:24:36.668Z,82
2024-04-15T05:27:37.392Z,82
2024-04-15T05:30:37.237Z,82
2024-04-15T05:33:36.782Z,82
2024-04-15T05:36:37.451Z,82
2024-04-15T05:39:37.165Z,82
2024-04-15T05:42:37.036Z,82
2024-04-15T05:45:37.219Z,85
2024-04-15T05:48:37.359Z,85
2024-04-15T05:51:37.145Z,85
2024-04-15T05:54:37.280Z,85
2024-04-15T05:57:36.522Z,84
2024-04-15T06:00:37.206Z,84
2024-04-15T06:03:37.398Z,84
2024-04-15T06:06:37.277Z,84
2024-04-15T06:09:36.882Z,84
2024-04-15T06:12:37.475Z,84
2024-04-15T06:15:37.936Z,84
2024-04-15T06:18:36.717Z,84
2024-04-15T06:21:37.191Z,84
2024-04-15T06:24:36.635Z,84
2024-04-15T06:27:37.012Z,84
2024-04-15T06:30:36.530Z,84
2024-04-15T06:33:37.409Z,84
2024-04-15T06:36:37.214Z,82
2024-04-15T06:39:36.411Z,82
2024-04-15T06:42:36.884Z,82
2024-04-15T06:45:37.329Z,82
2024-04-15T06:48:36.638Z,82
2024-04-15T06:51:36.811Z,82
2024-04-15T06:54:37.342Z,82
2024-04-15T06:57:38.810Z,82
2024-04-15T07:00:39.061Z,82
2024-04-15T07:03:38.587Z,82
2024-04-15T07:06:37.579Z,82
2024-04-15T07:09:37.062Z,82
2024-04-15T07:12:36.792Z,82
2024-04-15T07:15:37.696Z,78
2024-04-15T07:18:37.468Z,78
2024-04-15T07:21:37.066Z,78
2024-04-15T07:24:36.828Z,78
2024-04-15T07:27:36.947Z,78
2024-04-15T07:30:37.056Z,78
2024-04-15T07:33:36.728Z,78
2024-04-15T07:36:36.944Z,78
2024-04-15T07:39:37.192Z,78
2024-04-15T07:42:45.784Z,78
2024-04-15T07:45:37.414Z,78
2024-04-15T07:48:36.679Z,78
2024-04-15T07:51:36.820Z,78
2024-04-15T07:54:37.067Z,78
2024-04-15T07:57:37.285Z,78
2024-04-15T08:00:37.393Z,78
2024-04-15T08:03:36.784Z,78
2024-04-15T08:06:37.202Z,77
2024-04-15T08:09:37.602Z,77
2024-04-15T08:12:36.822Z,77
2024-04-15T08:15:38.934Z,76
2024-04-15T08:18:37.297Z,76
2024-04-15T08:21:36.916Z,76
2024-04-15T08:24:37.799Z,76
2024-04-15T08:27:37.537Z,76
2024-04-15T08:30:37.079Z,76
2024-04-15T08:33:38.011Z,76
2024-04-15T08:36:38.925Z,76
2024-04-15T08:39:37.653Z,76
2024-04-15T08:42:37.640Z,76
2024-04-15T08:45:37.354Z,69
2024-04-15T08:48:38.358Z,69
2024-04-15T08:51:36.776Z,69
2024-04-15T08:54:37.367Z,69
2024-04-15T08:57:36.784Z,66
2024-04-15T09:00:37.828Z,66
2024-04-15T09:03:37.417Z,66
2024-04-15T09:06:37.084Z,72
2024-04-15T09:09:37.356Z,72
2024-04-15T09:12:37.176Z,72
2024-04-15T09:15:36.635Z,72
2024-04-15T09:18:37.396Z,72
2024-04-15T09:21:37.749Z,72
2024-04-15T09:24:38.288Z,72
2024-04-15T09:27:36.898Z,71
2024-04-15T09:30:37.627Z,71
2024-04-15T09:33:37.516Z,71
2024-04-15T09:36:37.069Z,69
2024-04-15T09:39:36.856Z,69
2024-04-15T09:42:37.402Z,69
2024-04-15T09:45:36.680Z,69
2024-04-15T09:48:37.683Z,69
2024-04-15T09:51:37.083Z,69
2024-04-15T09:54:37.066Z,69
2024-04-15T09:57:36.625Z,69
2024-04-15T10:00:37.644Z,69
2024-04-15T10:03:37.632Z,69
2024-04-15T10:06:37.330Z,66
2024-04-15T10:09:36.907Z,66
2024-04-15T10:12:37.266Z,66
2024-04-15T10:15:36.867Z,63
2024-04-15T10:18:36.798Z,63
2024-04-15T10:21:37.194Z,63
2024-04-15T10:24:36.866Z,63
2024-04-15T10:27:36.821Z,56
2024-04-15T10:30:37.457Z,56
2024-04-15T10:33:37.693Z,56
2024-04-15T10:36:37.215Z,53
2024-04-15T10:39:36.620Z,53
2024-04-15T10:42:37.066Z,53
2024-04-15T10:45:37.709Z,54
2024-04-15T10:48:37.387Z,54
2024-04-15T10:51:36.904Z,54
2024-04-15T10:54:37.574Z,54
2024-04-15T10:57:36.913Z,56
2024-04-15T11:00:37.586Z,56
2024-04-15T11:03:37.250Z,56
2024-04-15T11:06:36.864Z,56
2024-04-15T11:09:37.537Z,56
2024-04-15T11:12:37.180Z,56
2024-04-15T11:15:36.715Z,54
2024-04-15T11:18:37.514Z,54
2024-04-15T11:21:38.213Z,54
2024-04-15T11:24:37.253Z,54
2024-04-15T11:27:36.685Z,52
2024-04-15T11:30:37.064Z,52
2024-04-15T11:33:37.163Z,52
2024-04-15T11:36:37.215Z,51
2024-04-15T11:39:36.928Z,51
2024-04-15T11:42:37.614Z,51
2024-04-15T11:45:37.488Z,52
2024-04-15T11:48:37.422Z,52
2024-04-15T11:51:37.302Z,52
2024-04-15T11:54:36.924Z,52
2024-04-15T11:57:37.690Z,47
2024-04-15T12:00:38.809Z,47
2024-04-15T12:03:38.123Z,47
2024-04-15T12:06:37.060Z,50
2024-04-15T12:09:37.829Z,50
2024-04-15T12:12:39.857Z,50
2024-04-15T12:15:37.526Z,53
2024-04-15T12:18:36.584Z,53
2024-04-15T12:21:37.507Z,53
2024-04-15T12:25:05.092Z,53
2024-04-15T12:27:40.819Z,52
2024-04-15T12:30:37.421Z,52
2024-04-15T12:33:37.314Z,52
2024-04-15T12:36:36.842Z,49
2024-04-15T12:39:37.433Z,49
2024-04-15T12:42:36.895Z,49
2024-04-15T12:45:37.192Z,54
2024-04-15T12:48:37.026Z,54
2024-04-15T12:51:37.043Z,54
2024-04-15T12:54:36.791Z,54
2024-04-15T12:57:37.258Z,53
2024-04-15T13:00:36.787Z,53
2024-04-15T13:03:37.354Z,53
2024-04-15T13:06:37.180Z,50
2024-04-15T13:09:37.472Z,50
2024-04-15T13:12:37.186Z,50
2024-04-15T13:15:36.760Z,47
2024-04-15T13:18:37.553Z,47
2024-04-15T13:21:37.235Z,47
2024-04-15T13:24:37.017Z,47
2024-04-15T13:27:42.406Z,49
2024-04-15T13:30:37.367Z,49
2024-04-15T13:33:38.642Z,49
2024-04-15T13:36:36.931Z,46
2024-04-15T13:39:42.488Z,46
2024-04-15T13:42:37.056Z,46
2024-04-15T13:45:37.365Z,47
2024-04-15T13:48:37.089Z,47
2024-04-15T13:51:36.916Z,47
2024-04-15T13:54:37.574Z,47
2024-04-15T13:57:38.630Z,44
2024-04-15T14:00:37.683Z,44
2024-04-15T14:03:37.800Z,44
2024-04-15T14:06:36.776Z,42
2024-04-15T14:09:37.458Z,42
2024-04-15T14:12:37.445Z,42
2024-04-15T14:15:37.319Z,41
2024-04-15T14:18:37.163Z,41
2024-04-15T14:21:37.261Z,41
2024-04-15T14:24:36.810Z,41
2024-04-15T14:27:37.594Z,45
2024-04-15T14:30:37.339Z,45
2024-04-15T14:33:37.226Z,45
2024-04-15T14:36:37.715Z,45
2024-04-15T14:39:36.886Z,45
2024-04-15T14:42:37.546Z,45
2024-04-15T14:45:37.105Z,45
2024-04-15T14:48:37.542Z,45
2024-04-15T14:51:37.156Z,45
2024-04-15T14:54:43.240Z,45
2024-04-15T14:57:37.216Z,45
2024-04-15T15:00:37.090Z,45
2024-04-15T15:03:36.849Z,45
2024-04-15T15:06:37.764Z,43
2024-04-15T15:09:37.334Z,43
2024-04-15T15:12:36.942Z,43
2024-04-15T15:15:37.456Z,41
2024-04-15T15:18:39.157Z,41
2024-04-15T15:21:36.944Z,41
2024-04-15T15:24:37.634Z,41
2024-04-15T15:27:37.311Z,44
2024-04-15T15:30:36.748Z,44
2024-04-15T15:33:37.196Z,44
2024-04-15T15:36:36.978Z,43
2024-04-15T15:39:37.669Z,43
2024-04-15T15:42:36.673Z,43
2024-04-15T15:45:37.434Z,43
2024-04-15T15:48:37.352Z,43
2024-04-15T15:51:37.345Z,43
2024-04-15T15:54:37.130Z,43
2024-04-15T15:57:37.289Z,44
2024-04-15T16:00:36.615Z,44
2024-04-15T16:03:37.985Z,44
2024-04-15T16:06:36.733Z,45
2024-04-15T16:09:38.383Z,45
2024-04-15T16:12:37.292Z,45
2024-04-15T16:15:37.174Z,46
2024-04-15T16:18:37.423Z,46
2024-04-15T16:21:37.236Z,46
2024-04-15T16:24:37.007Z,46
2024-04-15T16:27:36.997Z,46
2024-04-15T16:30:37.527Z,46
2024-04-15T16:33:37.269Z,46
2024-04-15T16:36:36.732Z,47
2024-04-15T16:39:37.780Z,47
2024-04-15T16:42:36.531Z,47
2024-04-15T16:45:36.992Z,46
2024-04-15T16:48:37.522Z,46
2024-04-15T16:51:37.194Z,46
2024-04-15T16:54:36.956Z,46
2024-04-15T16:57:36.600Z,46
2024-04-15T17:03:38.575Z,46
2024-04-15T17:06:39.662Z,47
2024-04-15T17:09:38.123Z,47
2024-04-15T17:12:36.814Z,47
2024-04-15T17:15:41.250Z,48
2024-04-15T17:18:37.793Z,48
2024-04-15T17:21:37.577Z,48
2024-04-15T17:24:37.098Z,48
2024-04-15T17:27:37.636Z,50
2024-04-15T17:30:37.536Z,50
2024-04-15T17:33:37.402Z,50
2024-04-15T17:36:37.433Z,52
2024-04-15T17:39:36.829Z,52
2024-04-15T17:42:37.437Z,52
2024-04-15T17:45:37.074Z,52
2024-04-15T17:48:36.486Z,52
2024-04-15T17:51:36.894Z,52
2024-04-15T17:54:37.581Z,52
2024-04-15T17:57:37.157Z,53
2024-04-15T18:00:36.845Z,53
2024-04-15T18:03:37.543Z,53
2024-04-15T18:06:37.170Z,55
2024-04-15T18:09:36.491Z,55
2024-04-15T18:12:37.126Z,55
2024-04-15T18:15:36.666Z,56
2024-04-15T18:18:36.531Z,56
2024-04-15T18:21:36.910Z,56
2024-04-15T18:24:38.399Z,56
2024-04-15T18:27:37.169Z,56
2024-04-15T18:30:37.175Z,56
2024-04-15T18:33:37.518Z,56
2024-04-15T18:36:37.168Z,57
2024-04-15T18:39:37.803Z,57
2024-04-15T18:42:36.895Z,57
2024-04-15T18:45:37.269Z,58
2024-04-15T18:48:39.268Z,58
2024-04-15T18:51:36.738Z,58
2024-04-15T18:54:37.537Z,58
2024-04-15T18:57:36.810Z,59
2024-04-15T19:00:38.378Z,59
2024-04-15T19:03:37.946Z,59
2024-04-15T19:06:36.851Z,60
2024-04-15T19:09:37.179Z,60
2024-04-15T19:12:36.628Z,60
2024-04-15T19:15:37.448Z,62
2024-04-15T19:18:36.814Z,62
2024-04-15T19:21:37.227Z,62
2024-04-15T19:24:37.225Z,62
2024-04-15T19:27:36.612Z,63
2024-04-15T19:30:37.303Z,63
2024-04-15T19:33:37.370Z,63
2024-04-15T19:36:37.379Z,64
2024-04-15T19:39:36.875Z,64
2024-04-15T19:42:37.588Z,64
2024-04-15T19:45:37.148Z,64
2024-04-15T19:48:37.059Z,64
2024-04-15T19:51:40.883Z,64
2024-04-15T19:54:37.325Z,64
2024-04-15T19:57:37.132Z,64
2024-04-15T20:00:36.846Z,64
2024-04-15T20:03:39.238Z,64
2024-04-15T20:06:36.983Z,64
2024-04-15T20:09:37.256Z,64
2024-04-15T20:12:36.826Z,64
2024-04-15T20:15:37.548Z,66
2024-04-15T20:18:38.129Z,66
2024-04-15T20:21:37.267Z,66
2024-04-15T20:24:37.482Z,66
2024-04-15T20:27:37.125Z,66
2024-04-15T20:30:37.043Z,66
2024-04-15T20:33:36.762Z,66
2024-04-15T20:36:37.191Z,66
2024-04-15T20:39:36.921Z,66
2024-04-15T20:42:37.071Z,66
2024-04-15T20:45:36.999Z,66
2024-04-15T20:48:37.106Z,66
2024-04-15T20:51:36.867Z,66
2024-04-15T20:54:37.474Z,66
2024-04-15T20:57:36.791Z,66
2024-04-15T21:00:37.408Z,66
2024-04-15T21:03:36.809Z,66
2024-04-15T21:06:36.810Z,66
2024-04-15T21:09:36.898Z,66
2024-04-15T21:12:37.518Z,66
2024-04-15T21:15:37.057Z,67
2024-04-15T21:18:37.063Z,67
2024-04-15T21:21:37.290Z,67
2024-04-15T21:24:37.004Z,67
2024-04-15T21:27:36.859Z,67
2024-04-15T21:30:37.231Z,67
2024-04-15T21:33:36.937Z,67
2024-04-15T21:36:37.294Z,68
2024-04-15T21:39:36.900Z,68
2024-04-15T21:42:36.537Z,68
2024-04-15T21:45:36.862Z,69
2024-04-15T21:48:37.445Z,69
2024-04-15T21:51:36.872Z,69
2024-04-15T21:54:37.624Z,69
2024-04-15T21:57:37.259Z,69
2024-04-15T22:00:36.886Z,69
2024-04-15T22:03:37.720Z,69
2024-04-15T22:06:37.372Z,69
2024-04-15T22:09:36.856Z,69
2024-04-15T22:12:37.577Z,69
2024-04-15T22:15:37.146Z,68
2024-04-15T22:18:37.013Z,68
2024-04-15T22:21:37.586Z,68
2024-04-15T22:24:37.294Z,68
2024-04-15T22:27:38.233Z,69
2024-04-15T22:30:36.960Z,69
2024-04-15T22:33:37.774Z,69
2024-04-15T22:36:36.754Z,69
2024-04-15T22:39:37.523Z,69
2024-04-15T22:42:37.011Z,69
2024-04-15T22:45:36.856Z,69
2024-04-15T22:48:36.960Z,69
2024-04-15T22:51:36.920Z,69
2024-04-15T22:54:36.603Z,69
2024-04-15T22:57:38.131Z,69
2024-04-15T23:00:37.046Z,69
2024-04-15T23:03:37.481Z,69
2024-04-15T23:06:37.808Z,70
2024-04-15T23:09:37.844Z,70
2024-04-15T23:12:36.853Z,70
2024-04-15T23:15:37.444Z,70
2024-04-15T23:18:37.729Z,70
2024-04-15T23:21:36.785Z,70
2024-04-15T23:24:36.718Z,70
2024-04-15T23:27:37.662Z,71
2024-04-15T23:30:36.650Z,71
2024-04-15T23:36:37.456Z,73
2024-04-15T23:39:37.442Z,73
2024-04-15T23:42:37.562Z,73
2024-04-15T23:45:37.610Z,73
2024-04-15T23:48:37.342Z,73
2024-04-15T23:51:36.832Z,73
2024-04-15T23:54:37.356Z,73
2024-04-15T23:57:37.131Z,73
